sensor_id;sensor_type;location;lat;lon;timestamp;P1;durP1;ratioP1;P2;durP2;ratioP2
77701;SDS011;66868;42.708;23.404;2023-02-02T00:01:48;8.23;;;3.87;;
77701;SDS011;66868;42.708;23.404;2023-02-02T00:04:20;4.17;;;3.60;;
77701;SDS011;66868;42.708;23.404;2023-02-02T00:06:47;8.07;;;3.83;;
77701;SDS011;66868;42.708;23.404;2023-02-02T00:09:18;5.63;;;4.40;;
77701;SDS011;66868;42.708;23.404;2023-02-02T00:11:45;5.67;;;3.90;;
77701;SDS011;66868;42.708;23.404;2023-02-02T00:14:12;6.70;;;4.20;;
77701;SDS011;66868;42.708;23.404;2023-02-02T00:16:41;5.93;;;3.40;;
77701;SDS011;66868;42.708;23.404;2023-02-02T00:19:18;11.23;;;4.37;;
77701;SDS011;66868;42.708;23.404;2023-02-02T00:21:46;7.70;;;4.07;;
77701;SDS011;66868;42.708;23.404;2023-02-02T00:24:12;5.43;;;4.50;;
77701;SDS011;66868;42.708;23.404;2023-02-02T00:26:40;6.80;;;4.03;;
77701;SDS011;66868;42.708;23.404;2023-02-02T00:29:07;7.20;;;5.20;;
77701;SDS011;66868;42.708;23.404;2023-02-02T00:31:39;16.67;;;6.30;;
77701;SDS011;66868;42.708;23.404;2023-02-02T00:34:04;12.07;;;7.17;;
77701;SDS011;66868;42.708;23.404;2023-02-02T00:36:29;6.40;;;5.53;;
77701;SDS011;66868;42.708;23.404;2023-02-02T00:38:55;7.27;;;5.97;;
77701;SDS011;66868;42.708;23.404;2023-02-02T00:41:20;7.97;;;5.43;;
77701;SDS011;66868;42.708;23.404;2023-02-02T00:43:46;10.07;;;5.63;;
77701;SDS011;66868;42.708;23.404;2023-02-02T00:46:31;10.50;;;5.27;;
77701;SDS011;66868;42.708;23.404;2023-02-02T00:48:56;8.63;;;4.87;;
77701;SDS011;66868;42.708;23.404;2023-02-02T00:51:22;6.13;;;4.33;;
77701;SDS011;66868;42.708;23.404;2023-02-02T00:53:47;7.73;;;4.43;;
77701;SDS011;66868;42.708;23.404;2023-02-02T00:56:12;5.83;;;4.00;;
77701;SDS011;66868;42.708;23.404;2023-02-02T00:58:38;6.93;;;4.70;;
77701;SDS011;66868;42.708;23.404;2023-02-02T01:01:03;10.33;;;5.30;;
77701;SDS011;66868;42.708;23.404;2023-02-02T01:03:28;14.70;;;4.47;;
77701;SDS011;66868;42.708;23.404;2023-02-02T01:05:54;8.70;;;4.03;;
77701;SDS011;66868;42.708;23.404;2023-02-02T01:08:19;5.33;;;3.97;;
77701;SDS011;66868;42.708;23.404;2023-02-02T01:10:45;5.43;;;4.67;;
77701;SDS011;66868;42.708;23.404;2023-02-02T01:13:10;6.93;;;4.27;;
77701;SDS011;66868;42.708;23.404;2023-02-02T01:15:35;4.73;;;3.80;;
77701;SDS011;66868;42.708;23.404;2023-02-02T01:18:01;3.73;;;3.27;;
77701;SDS011;66868;42.708;23.404;2023-02-02T01:20:26;8.07;;;4.00;;
77701;SDS011;66868;42.708;23.404;2023-02-02T01:22:52;8.73;;;4.17;;
77701;SDS011;66868;42.708;23.404;2023-02-02T01:25:17;4.00;;;3.70;;
77701;SDS011;66868;42.708;23.404;2023-02-02T01:27:43;4.10;;;3.40;;
77701;SDS011;66868;42.708;23.404;2023-02-02T01:30:08;4.77;;;3.63;;
77701;SDS011;66868;42.708;23.404;2023-02-02T01:32:34;5.53;;;3.80;;
77701;SDS011;66868;42.708;23.404;2023-02-02T01:34:59;7.03;;;4.27;;
77701;SDS011;66868;42.708;23.404;2023-02-02T01:37:25;5.63;;;3.40;;
77701;SDS011;66868;42.708;23.404;2023-02-02T01:39:50;3.63;;;3.33;;
77701;SDS011;66868;42.708;23.404;2023-02-02T01:42:19;4.63;;;3.87;;
77701;SDS011;66868;42.708;23.404;2023-02-02T01:45:06;5.57;;;3.37;;
77701;SDS011;66868;42.708;23.404;2023-02-02T01:47:38;3.60;;;3.30;;
77701;SDS011;66868;42.708;23.404;2023-02-02T01:50:08;5.33;;;4.10;;
77701;SDS011;66868;42.708;23.404;2023-02-02T01:52:35;5.70;;;3.60;;
77701;SDS011;66868;42.708;23.404;2023-02-02T01:55:04;8.30;;;3.73;;
77701;SDS011;66868;42.708;23.404;2023-02-02T01:57:38;8.20;;;4.23;;
77701;SDS011;66868;42.708;23.404;2023-02-02T02:00:08;3.93;;;3.53;;
77701;SDS011;66868;42.708;23.404;2023-02-02T02:02:36;5.23;;;3.20;;
77701;SDS011;66868;42.708;23.404;2023-02-02T02:05:03;4.37;;;2.93;;
77701;SDS011;66868;42.708;23.404;2023-02-02T02:07:30;3.27;;;2.97;;
77701;SDS011;66868;42.708;23.404;2023-02-02T02:09:55;7.90;;;3.10;;
77701;SDS011;66868;42.708;23.404;2023-02-02T02:12:21;3.70;;;3.40;;
77701;SDS011;66868;42.708;23.404;2023-02-02T02:14:47;3.73;;;3.30;;
77701;SDS011;66868;42.708;23.404;2023-02-02T02:34:51;5.63;;;5.13;;
77701;SDS011;66868;42.708;23.404;2023-02-02T02:37:32;7.67;;;4.83;;
77701;SDS011;66868;42.708;23.404;2023-02-02T02:42:35;5.97;;;5.33;;
77701;SDS011;66868;42.708;23.404;2023-02-02T02:45:05;6.37;;;4.97;;
77701;SDS011;66868;42.708;23.404;2023-02-02T02:47:33;5.23;;;3.93;;
77701;SDS011;66868;42.708;23.404;2023-02-02T02:49:59;6.67;;;5.13;;
77701;SDS011;66868;42.708;23.404;2023-02-02T02:52:24;12.20;;;5.17;;
77701;SDS011;66868;42.708;23.404;2023-02-02T02:54:53;5.90;;;5.00;;
77701;SDS011;66868;42.708;23.404;2023-02-02T03:03:07;8.93;;;5.73;;
77701;SDS011;66868;42.708;23.404;2023-02-02T03:05:51;7.17;;;5.13;;
77701;SDS011;66868;42.708;23.404;2023-02-02T03:08:30;7.90;;;6.90;;
77701;SDS011;66868;42.708;23.404;2023-02-02T03:11:00;9.27;;;8.33;;
77701;SDS011;66868;42.708;23.404;2023-02-02T03:13:29;12.30;;;7.87;;
77701;SDS011;66868;42.708;23.404;2023-02-02T03:15:55;12.27;;;8.00;;
77701;SDS011;66868;42.708;23.404;2023-02-02T03:18:21;13.33;;;7.57;;
77701;SDS011;66868;42.708;23.404;2023-02-02T03:20:49;14.43;;;10.00;;
77701;SDS011;66868;42.708;23.404;2023-02-02T03:23:15;9.70;;;6.00;;
77701;SDS011;66868;42.708;23.404;2023-02-02T03:25:40;6.37;;;5.50;;
77701;SDS011;66868;42.708;23.404;2023-02-02T03:28:06;6.00;;;5.40;;
77701;SDS011;66868;42.708;23.404;2023-02-02T03:30:32;6.80;;;4.97;;
77701;SDS011;66868;42.708;23.404;2023-02-02T03:32:58;6.33;;;4.80;;
77701;SDS011;66868;42.708;23.404;2023-02-02T03:35:24;9.10;;;5.20;;
77701;SDS011;66868;42.708;23.404;2023-02-02T03:37:50;6.27;;;4.83;;
77701;SDS011;66868;42.708;23.404;2023-02-02T03:40:16;5.60;;;4.77;;
77701;SDS011;66868;42.708;23.404;2023-02-02T03:42:41;6.73;;;5.63;;
77701;SDS011;66868;42.708;23.404;2023-02-02T03:45:08;5.90;;;5.23;;
77701;SDS011;66868;42.708;23.404;2023-02-02T03:47:34;7.27;;;6.57;;
77701;SDS011;66868;42.708;23.404;2023-02-02T03:49:59;5.03;;;4.67;;
77701;SDS011;66868;42.708;23.404;2023-02-02T03:52:25;9.47;;;4.87;;
77701;SDS011;66868;42.708;23.404;2023-02-02T03:54:50;7.23;;;5.67;;
77701;SDS011;66868;42.708;23.404;2023-02-02T03:57:16;10.47;;;6.53;;
77701;SDS011;66868;42.708;23.404;2023-02-02T03:59:41;17.20;;;8.47;;
77701;SDS011;66868;42.708;23.404;2023-02-02T04:02:07;7.37;;;5.63;;
77701;SDS011;66868;42.708;23.404;2023-02-02T04:04:32;6.77;;;4.00;;
77701;SDS011;66868;42.708;23.404;2023-02-02T04:06:58;5.73;;;4.37;;
77701;SDS011;66868;42.708;23.404;2023-02-02T04:09:23;4.80;;;4.40;;
77701;SDS011;66868;42.708;23.404;2023-02-02T04:11:49;5.77;;;4.90;;
77701;SDS011;66868;42.708;23.404;2023-02-02T04:14:14;5.20;;;4.80;;
77701;SDS011;66868;42.708;23.404;2023-02-02T04:16:40;6.80;;;4.70;;
77701;SDS011;66868;42.708;23.404;2023-02-02T04:19:05;6.37;;;4.43;;
77701;SDS011;66868;42.708;23.404;2023-02-02T04:21:31;5.33;;;4.80;;
77701;SDS011;66868;42.708;23.404;2023-02-02T04:23:56;6.27;;;5.43;;
77701;SDS011;66868;42.708;23.404;2023-02-02T04:26:22;7.67;;;5.30;;
77701;SDS011;66868;42.708;23.404;2023-02-02T04:28:51;5.37;;;4.87;;
77701;SDS011;66868;42.708;23.404;2023-02-02T04:31:17;5.60;;;5.10;;
77701;SDS011;66868;42.708;23.404;2023-02-02T04:33:43;10.10;;;6.93;;
77701;SDS011;66868;42.708;23.404;2023-02-02T04:36:08;17.50;;;8.07;;
77701;SDS011;66868;42.708;23.404;2023-02-02T04:38:34;13.30;;;8.13;;
77701;SDS011;66868;42.708;23.404;2023-02-02T04:41:04;17.27;;;9.93;;
77701;SDS011;66868;42.708;23.404;2023-02-02T04:43:34;13.00;;;7.57;;
77701;SDS011;66868;42.708;23.404;2023-02-02T04:46:00;12.80;;;7.27;;
77701;SDS011;66868;42.708;23.404;2023-02-02T04:48:26;27.70;;;13.17;;
77701;SDS011;66868;42.708;23.404;2023-02-02T04:50:56;21.90;;;12.00;;
77701;SDS011;66868;42.708;23.404;2023-02-02T04:53:26;18.50;;;11.63;;
77701;SDS011;66868;42.708;23.404;2023-02-02T04:55:52;19.10;;;9.40;;
77701;SDS011;66868;42.708;23.404;2023-02-02T04:58:18;12.77;;;8.17;;
77701;SDS011;66868;42.708;23.404;2023-02-02T05:00:44;10.40;;;7.20;;
77701;SDS011;66868;42.708;23.404;2023-02-02T05:03:09;9.70;;;7.87;;
77701;SDS011;66868;42.708;23.404;2023-02-02T05:05:35;16.33;;;8.83;;
77701;SDS011;66868;42.708;23.404;2023-02-02T05:08:01;14.70;;;8.47;;
77701;SDS011;66868;42.708;23.404;2023-02-02T05:10:26;15.43;;;9.33;;
77701;SDS011;66868;42.708;23.404;2023-02-02T05:12:52;14.73;;;8.50;;
77701;SDS011;66868;42.708;23.404;2023-02-02T05:15:18;10.50;;;7.83;;
77701;SDS011;66868;42.708;23.404;2023-02-02T05:17:45;9.37;;;7.83;;
77701;SDS011;66868;42.708;23.404;2023-02-02T05:20:11;15.40;;;7.73;;
77701;SDS011;66868;42.708;23.404;2023-02-02T05:22:37;17.70;;;8.70;;
77701;SDS011;66868;42.708;23.404;2023-02-02T05:25:03;15.00;;;8.23;;
77701;SDS011;66868;42.708;23.404;2023-02-02T05:27:29;18.13;;;8.50;;
77701;SDS011;66868;42.708;23.404;2023-02-02T05:29:55;44.63;;;17.30;;
77701;SDS011;66868;42.708;23.404;2023-02-02T05:32:20;20.70;;;11.43;;
77701;SDS011;66868;42.708;23.404;2023-02-02T05:34:45;12.20;;;8.13;;
77701;SDS011;66868;42.708;23.404;2023-02-02T05:37:11;13.23;;;8.50;;
77701;SDS011;66868;42.708;23.404;2023-02-02T05:39:36;16.63;;;9.73;;
77701;SDS011;66868;42.708;23.404;2023-02-02T05:42:02;13.47;;;9.30;;
77701;SDS011;66868;42.708;23.404;2023-02-02T05:44:27;11.90;;;7.30;;
77701;SDS011;66868;42.708;23.404;2023-02-02T05:46:53;10.80;;;8.03;;
77701;SDS011;66868;42.708;23.404;2023-02-02T05:49:18;14.93;;;7.80;;
77701;SDS011;66868;42.708;23.404;2023-02-02T05:51:45;11.57;;;7.57;;
77701;SDS011;66868;42.708;23.404;2023-02-02T05:54:12;12.83;;;7.90;;
77701;SDS011;66868;42.708;23.404;2023-02-02T05:56:43;11.60;;;8.37;;
77701;SDS011;66868;42.708;23.404;2023-02-02T05:59:08;13.27;;;7.23;;
77701;SDS011;66868;42.708;23.404;2023-02-02T06:01:34;7.87;;;6.87;;
77701;SDS011;66868;42.708;23.404;2023-02-02T06:03:59;11.07;;;6.87;;
77701;SDS011;66868;42.708;23.404;2023-02-02T06:06:25;8.83;;;6.40;;
77701;SDS011;66868;42.708;23.404;2023-02-02T06:08:50;12.73;;;7.17;;
77701;SDS011;66868;42.708;23.404;2023-02-02T06:11:16;64.97;;;27.17;;
77701;SDS011;66868;42.708;23.404;2023-02-02T06:13:42;61.07;;;23.97;;
77701;SDS011;66868;42.708;23.404;2023-02-02T06:16:08;49.90;;;23.37;;
77701;SDS011;66868;42.708;23.404;2023-02-02T06:18:34;33.60;;;17.33;;
77701;SDS011;66868;42.708;23.404;2023-02-02T06:21:00;27.17;;;14.80;;
77701;SDS011;66868;42.708;23.404;2023-02-02T06:23:27;27.43;;;16.17;;
77701;SDS011;66868;42.708;23.404;2023-02-02T06:25:53;14.37;;;10.03;;
77701;SDS011;66868;42.708;23.404;2023-02-02T06:28:18;20.47;;;11.27;;
77701;SDS011;66868;42.708;23.404;2023-02-02T06:30:44;27.23;;;14.23;;
77701;SDS011;66868;42.708;23.404;2023-02-02T06:33:09;33.33;;;17.77;;
77701;SDS011;66868;42.708;23.404;2023-02-02T06:35:35;27.27;;;16.30;;
77701;SDS011;66868;42.708;23.404;2023-02-02T06:38:00;17.80;;;10.77;;
77701;SDS011;66868;42.708;23.404;2023-02-02T06:40:26;24.87;;;14.57;;
77701;SDS011;66868;42.708;23.404;2023-02-02T06:42:56;20.23;;;13.07;;
77701;SDS011;66868;42.708;23.404;2023-02-02T06:45:22;18.63;;;12.47;;
77701;SDS011;66868;42.708;23.404;2023-02-02T06:47:48;20.97;;;11.47;;
77701;SDS011;66868;42.708;23.404;2023-02-02T06:50:13;30.13;;;16.13;;
77701;SDS011;66868;42.708;23.404;2023-02-02T06:52:45;18.07;;;9.37;;
77701;SDS011;66868;42.708;23.404;2023-02-02T06:55:12;12.97;;;8.83;;
77701;SDS011;66868;42.708;23.404;2023-02-02T06:57:37;19.73;;;10.67;;
77701;SDS011;66868;42.708;23.404;2023-02-02T07:00:03;12.17;;;6.67;;
77701;SDS011;66868;42.708;23.404;2023-02-02T07:02:29;17.80;;;9.50;;
77701;SDS011;66868;42.708;23.404;2023-02-02T07:04:54;14.67;;;7.83;;
77701;SDS011;66868;42.708;23.404;2023-02-02T07:07:19;15.43;;;9.23;;
77701;SDS011;66868;42.708;23.404;2023-02-02T07:09:45;24.20;;;10.30;;
77701;SDS011;66868;42.708;23.404;2023-02-02T07:12:10;19.03;;;11.47;;
77701;SDS011;66868;42.708;23.404;2023-02-02T07:14:35;24.70;;;13.77;;
77701;SDS011;66868;42.708;23.404;2023-02-02T07:17:01;27.03;;;11.93;;
77701;SDS011;66868;42.708;23.404;2023-02-02T07:19:27;19.30;;;11.60;;
77701;SDS011;66868;42.708;23.404;2023-02-02T07:21:53;21.97;;;12.13;;
77701;SDS011;66868;42.708;23.404;2023-02-02T07:24:18;19.50;;;12.83;;
77701;SDS011;66868;42.708;23.404;2023-02-02T07:26:43;18.10;;;10.30;;
77701;SDS011;66868;42.708;23.404;2023-02-02T07:29:11;18.50;;;12.10;;
77701;SDS011;66868;42.708;23.404;2023-02-02T07:31:38;18.97;;;11.13;;
77701;SDS011;66868;42.708;23.404;2023-02-02T07:34:03;11.93;;;9.57;;
77701;SDS011;66868;42.708;23.404;2023-02-02T07:36:30;17.43;;;10.57;;
77701;SDS011;66868;42.708;23.404;2023-02-02T07:38:55;16.67;;;9.33;;
77701;SDS011;66868;42.708;23.404;2023-02-02T07:41:25;17.70;;;8.73;;
77701;SDS011;66868;42.708;23.404;2023-02-02T07:43:51;14.43;;;9.43;;
77701;SDS011;66868;42.708;23.404;2023-02-02T07:46:17;16.13;;;10.70;;
77701;SDS011;66868;42.708;23.404;2023-02-02T07:48:44;19.70;;;10.27;;
77701;SDS011;66868;42.708;23.404;2023-02-02T07:51:10;20.23;;;9.03;;
77701;SDS011;66868;42.708;23.404;2023-02-02T07:53:38;25.70;;;10.23;;
77701;SDS011;66868;42.708;23.404;2023-02-02T07:58:37;27.93;;;11.87;;
77701;SDS011;66868;42.708;23.404;2023-02-02T08:01:04;17.47;;;10.57;;
77701;SDS011;66868;42.708;23.404;2023-02-02T08:03:31;13.43;;;8.37;;
77701;SDS011;66868;42.708;23.404;2023-02-02T08:05:57;20.17;;;8.60;;
77701;SDS011;66868;42.708;23.404;2023-02-02T08:08:23;13.77;;;8.23;;
77701;SDS011;66868;42.708;23.404;2023-02-02T08:10:50;10.27;;;7.70;;
77701;SDS011;66868;42.708;23.404;2023-02-02T08:13:16;13.63;;;6.73;;
77701;SDS011;66868;42.708;23.404;2023-02-02T08:15:42;14.80;;;8.20;;
77701;SDS011;66868;42.708;23.404;2023-02-02T08:18:08;15.83;;;5.60;;
77701;SDS011;66868;42.708;23.404;2023-02-02T08:20:33;22.73;;;8.57;;
77701;SDS011;66868;42.708;23.404;2023-02-02T08:22:59;8.20;;;6.73;;
77701;SDS011;66868;42.708;23.404;2023-02-02T08:25:25;12.70;;;6.87;;
77701;SDS011;66868;42.708;23.404;2023-02-02T08:27:53;10.63;;;7.10;;
77701;SDS011;66868;42.708;23.404;2023-02-02T08:30:27;7.43;;;6.00;;
77701;SDS011;66868;42.708;23.404;2023-02-02T08:32:52;5.77;;;5.10;;
77701;SDS011;66868;42.708;23.404;2023-02-02T08:35:17;6.70;;;5.27;;
77701;SDS011;66868;42.708;23.404;2023-02-02T08:37:45;11.83;;;6.23;;
77701;SDS011;66868;42.708;23.404;2023-02-02T08:40:12;14.33;;;6.30;;
77701;SDS011;66868;42.708;23.404;2023-02-02T08:42:38;14.07;;;7.57;;
77701;SDS011;66868;42.708;23.404;2023-02-02T08:45:03;12.47;;;7.63;;
77701;SDS011;66868;42.708;23.404;2023-02-02T08:47:29;15.77;;;9.70;;
77701;SDS011;66868;42.708;23.404;2023-02-02T08:49:55;9.90;;;6.27;;
77701;SDS011;66868;42.708;23.404;2023-02-02T08:52:20;11.53;;;6.47;;
77701;SDS011;66868;42.708;23.404;2023-02-02T08:54:45;10.87;;;6.97;;
77701;SDS011;66868;42.708;23.404;2023-02-02T08:57:11;8.77;;;6.73;;
77701;SDS011;66868;42.708;23.404;2023-02-02T08:59:36;7.27;;;5.50;;
77701;SDS011;66868;42.708;23.404;2023-02-02T09:02:01;6.93;;;5.50;;
77701;SDS011;66868;42.708;23.404;2023-02-02T09:04:27;9.37;;;5.60;;
77701;SDS011;66868;42.708;23.404;2023-02-02T09:06:52;8.80;;;5.57;;
77701;SDS011;66868;42.708;23.404;2023-02-02T09:09:18;10.37;;;5.83;;
77701;SDS011;66868;42.708;23.404;2023-02-02T09:11:43;12.53;;;4.67;;
77701;SDS011;66868;42.708;23.404;2023-02-02T09:14:09;10.53;;;4.27;;
77701;SDS011;66868;42.708;23.404;2023-02-02T09:16:36;16.00;;;5.10;;
77701;SDS011;66868;42.708;23.404;2023-02-02T09:19:02;8.23;;;4.60;;
77701;SDS011;66868;42.708;23.404;2023-02-02T09:21:28;5.47;;;3.63;;
77701;SDS011;66868;42.708;23.404;2023-02-02T09:23:53;3.90;;;3.30;;
77701;SDS011;66868;42.708;23.404;2023-02-02T09:26:20;5.65;;;3.45;;
77701;SDS011;66868;42.708;23.404;2023-02-02T09:28:52;9.82;;;4.40;;
77701;SDS011;66868;42.708;23.404;2023-02-02T09:31:22;8.98;;;4.03;;
77701;SDS011;66868;42.708;23.404;2023-02-02T09:33:48;5.17;;;3.20;;
77701;SDS011;66868;42.708;23.404;2023-02-02T09:36:15;9.20;;;4.27;;
77701;SDS011;66868;42.708;23.404;2023-02-02T09:38:44;8.75;;;3.67;;
77701;SDS011;66868;42.708;23.404;2023-02-02T09:41:26;5.10;;;3.80;;
77701;SDS011;66868;42.708;23.404;2023-02-02T09:47:04;6.30;;;3.70;;
77701;SDS011;66868;42.708;23.404;2023-02-02T09:52:29;8.85;;;3.55;;
77701;SDS011;66868;42.708;23.404;2023-02-02T09:55:04;10.63;;;3.75;;
77701;SDS011;66868;42.708;23.404;2023-02-02T09:57:34;6.43;;;4.20;;
77701;SDS011;66868;42.708;23.404;2023-02-02T10:00:03;8.32;;;3.55;;
77701;SDS011;66868;42.708;23.404;2023-02-02T10:02:39;6.43;;;3.85;;
77701;SDS011;66868;42.708;23.404;2023-02-02T10:05:14;12.25;;;3.92;;
77701;SDS011;66868;42.708;23.404;2023-02-02T10:07:45;6.40;;;4.22;;
77701;SDS011;66868;42.708;23.404;2023-02-02T10:10:16;5.88;;;4.13;;
77701;SDS011;66868;42.708;23.404;2023-02-02T10:13:00;8.13;;;4.82;;
77701;SDS011;66868;42.708;23.404;2023-02-02T10:18:29;4.32;;;3.30;;
77701;SDS011;66868;42.708;23.404;2023-02-02T10:24:04;4.47;;;3.63;;
77701;SDS011;66868;42.708;23.404;2023-02-02T10:26:59;7.05;;;3.45;;
77701;SDS011;66868;42.708;23.404;2023-02-02T10:29:32;2.47;;;2.38;;
77701;SDS011;66868;42.708;23.404;2023-02-02T10:32:22;4.63;;;3.28;;
77701;SDS011;66868;42.708;23.404;2023-02-02T10:46:00;5.38;;;2.75;;
77701;SDS011;66868;42.708;23.404;2023-02-02T10:48:30;6.95;;;4.75;;
77701;SDS011;66868;42.708;23.404;2023-02-02T10:51:01;6.55;;;2.67;;
77701;SDS011;66868;42.708;23.404;2023-02-02T10:53:34;10.25;;;3.08;;
77701;SDS011;66868;42.708;23.404;2023-02-02T11:01:10;4.32;;;3.13;;
77701;SDS011;66868;42.708;23.404;2023-02-02T11:03:36;16.55;;;2.97;;
77701;SDS011;66868;42.708;23.404;2023-02-02T11:06:03;8.38;;;2.28;;
77701;SDS011;66868;42.708;23.404;2023-02-02T11:08:49;8.50;;;2.92;;
77701;SDS011;66868;42.708;23.404;2023-02-02T11:11:28;9.52;;;2.65;;
77701;SDS011;66868;42.708;23.404;2023-02-02T11:16:42;6.53;;;3.13;;
77701;SDS011;66868;42.708;23.404;2023-02-02T11:21:40;7.95;;;2.50;;
77701;SDS011;66868;42.708;23.404;2023-02-02T11:24:21;3.08;;;2.42;;
77701;SDS011;66868;42.708;23.404;2023-02-02T11:26:52;2.63;;;2.47;;
77701;SDS011;66868;42.708;23.404;2023-02-02T11:29:25;9.82;;;2.83;;
77701;SDS011;66868;42.708;23.404;2023-02-02T11:31:56;6.00;;;2.72;;
77701;SDS011;66868;42.708;23.404;2023-02-02T11:34:23;6.80;;;2.83;;
77701;SDS011;66868;42.708;23.404;2023-02-02T11:39:44;18.08;;;3.53;;
77701;SDS011;66868;42.708;23.404;2023-02-02T11:44:43;4.72;;;2.08;;
77701;SDS011;66868;42.708;23.404;2023-02-02T11:47:25;5.88;;;2.70;;
77701;SDS011;66868;42.708;23.404;2023-02-02T11:49:54;7.20;;;4.13;;
77701;SDS011;66868;42.708;23.404;2023-02-02T11:52:22;4.15;;;3.03;;
77701;SDS011;66868;42.708;23.404;2023-02-02T11:54:56;6.18;;;2.45;;
77701;SDS011;66868;42.708;23.404;2023-02-02T11:57:25;2.90;;;2.22;;
77701;SDS011;66868;42.708;23.404;2023-02-02T12:02:32;8.38;;;2.20;;
77701;SDS011;66868;42.708;23.404;2023-02-02T12:05:13;3.13;;;2.90;;
77701;SDS011;66868;42.708;23.404;2023-02-02T12:07:44;4.18;;;2.58;;
77701;SDS011;66868;42.708;23.404;2023-02-02T12:10:33;5.43;;;2.53;;
77701;SDS011;66868;42.708;23.404;2023-02-02T12:13:24;2.42;;;2.20;;
77701;SDS011;66868;42.708;23.404;2023-02-02T12:16:05;3.90;;;2.58;;
77701;SDS011;66868;42.708;23.404;2023-02-02T12:19:09;9.13;;;2.47;;
77701;SDS011;66868;42.708;23.404;2023-02-02T12:24:55;3.03;;;2.03;;
77701;SDS011;66868;42.708;23.404;2023-02-02T12:30:09;5.88;;;2.17;;
77701;SDS011;66868;42.708;23.404;2023-02-02T12:35:23;1.58;;;1.42;;
77701;SDS011;66868;42.708;23.404;2023-02-02T12:46:20;16.45;;;5.57;;
77701;SDS011;66868;42.708;23.404;2023-02-02T12:56:59;2.00;;;1.90;;
77701;SDS011;66868;42.708;23.404;2023-02-02T13:07:51;5.03;;;2.17;;
77701;SDS011;66868;42.708;23.404;2023-02-02T13:10:35;1.90;;;1.52;;
77701;SDS011;66868;42.708;23.404;2023-02-02T13:13:12;1.75;;;1.65;;
77701;SDS011;66868;42.708;23.404;2023-02-02T13:15:43;3.85;;;3.40;;
77701;SDS011;66868;42.708;23.404;2023-02-02T13:21:01;9.80;;;4.97;;
77701;SDS011;66868;42.708;23.404;2023-02-02T13:23:35;4.38;;;3.58;;
77701;SDS011;66868;42.708;23.404;2023-02-02T13:28:51;4.88;;;1.98;;
77701;SDS011;66868;42.708;23.404;2023-02-02T13:31:27;1.83;;;1.73;;
77701;SDS011;66868;42.708;23.404;2023-02-02T13:34:04;2.80;;;2.55;;
77701;SDS011;66868;42.708;23.404;2023-02-02T13:36:53;11.23;;;5.03;;
77701;SDS011;66868;42.708;23.404;2023-02-02T13:39:39;3.50;;;3.30;;
77701;SDS011;66868;42.708;23.404;2023-02-02T13:42:14;7.60;;;3.35;;
77701;SDS011;66868;42.708;23.404;2023-02-02T13:45:27;3.67;;;3.40;;
77701;SDS011;66868;42.708;23.404;2023-02-02T13:48:05;3.17;;;2.80;;
77701;SDS011;66868;42.708;23.404;2023-02-02T13:53:56;13.68;;;5.60;;
77701;SDS011;66868;42.708;23.404;2023-02-02T14:02:24;15.40;;;7.28;;
77701;SDS011;66868;42.708;23.404;2023-02-02T14:04:56;14.32;;;7.78;;
77701;SDS011;66868;42.708;23.404;2023-02-02T14:07:29;12.98;;;7.82;;
77701;SDS011;66868;42.708;23.404;2023-02-02T14:10:03;15.80;;;7.45;;
77701;SDS011;66868;42.708;23.404;2023-02-02T14:12:30;9.57;;;6.15;;
77701;SDS011;66868;42.708;23.404;2023-02-02T14:14:58;4.32;;;3.08;;
77701;SDS011;66868;42.708;23.404;2023-02-02T14:19:53;1.83;;;1.73;;
77701;SDS011;66868;42.708;23.404;2023-02-02T14:27:57;3.40;;;1.40;;
77701;SDS011;66868;42.708;23.404;2023-02-02T14:30:28;1.10;;;1.10;;
77701;SDS011;66868;42.708;23.404;2023-02-02T14:41:23;2.20;;;1.90;;
77701;SDS011;66868;42.708;23.404;2023-02-02T14:44:30;3.28;;;1.90;;
77701;SDS011;66868;42.708;23.404;2023-02-02T14:46:58;6.13;;;3.42;;
77701;SDS011;66868;42.708;23.404;2023-02-02T14:49:24;4.13;;;3.17;;
77701;SDS011;66868;42.708;23.404;2023-02-02T14:51:54;3.40;;;3.20;;
77701;SDS011;66868;42.708;23.404;2023-02-02T14:54:29;3.73;;;3.20;;
77701;SDS011;66868;42.708;23.404;2023-02-02T14:56:59;4.73;;;4.03;;
77701;SDS011;66868;42.708;23.404;2023-02-02T14:59:43;3.57;;;3.30;;
77701;SDS011;66868;42.708;23.404;2023-02-02T15:07:54;3.30;;;2.70;;
77701;SDS011;66868;42.708;23.404;2023-02-02T15:13:17;3.30;;;3.00;;
77701;SDS011;66868;42.708;23.404;2023-02-02T15:15:46;3.50;;;3.30;;
77701;SDS011;66868;42.708;23.404;2023-02-02T15:18:20;2.60;;;2.50;;
77701;SDS011;66868;42.708;23.404;2023-02-02T15:20:52;2.93;;;2.70;;
77701;SDS011;66868;42.708;23.404;2023-02-02T15:33:36;0.83;;;0.83;;
77701;SDS011;66868;42.708;23.404;2023-02-02T15:36:15;0.80;;;0.80;;
77701;SDS011;66868;42.708;23.404;2023-02-02T15:38:51;1.70;;;1.67;;
77701;SDS011;66868;42.708;23.404;2023-02-02T15:41:20;1.97;;;1.87;;
77701;SDS011;66868;42.708;23.404;2023-02-02T15:43:50;3.67;;;2.90;;
77701;SDS011;66868;42.708;23.404;2023-02-02T15:46:18;4.40;;;2.80;;
77701;SDS011;66868;42.708;23.404;2023-02-02T15:51:51;2.00;;;1.90;;
77701;SDS011;66868;42.708;23.404;2023-02-02T15:56:50;5.47;;;2.60;;
77701;SDS011;66868;42.708;23.404;2023-02-02T15:59:20;2.43;;;2.33;;
77701;SDS011;66868;42.708;23.404;2023-02-02T16:04:42;2.73;;;2.47;;
77701;SDS011;66868;42.708;23.404;2023-02-02T16:07:11;2.40;;;2.30;;
77701;SDS011;66868;42.708;23.404;2023-02-02T16:09:40;3.53;;;2.30;;
77701;SDS011;66868;42.708;23.404;2023-02-02T16:12:11;3.00;;;2.10;;
77701;SDS011;66868;42.708;23.404;2023-02-02T16:14:42;2.50;;;2.03;;
77701;SDS011;66868;42.708;23.404;2023-02-02T16:17:11;2.10;;;2.00;;
77701;SDS011;66868;42.708;23.404;2023-02-02T16:19:38;2.03;;;1.90;;
77701;SDS011;66868;42.708;23.404;2023-02-02T16:22:08;2.23;;;2.07;;
77701;SDS011;66868;42.708;23.404;2023-02-02T16:24:40;1.80;;;1.70;;
77701;SDS011;66868;42.708;23.404;2023-02-02T16:27:12;3.67;;;1.83;;
77701;SDS011;66868;42.708;23.404;2023-02-02T16:29:42;2.47;;;2.23;;
77701;SDS011;66868;42.708;23.404;2023-02-02T16:34:56;2.97;;;2.33;;
77701;SDS011;66868;42.708;23.404;2023-02-02T16:37:24;3.30;;;3.00;;
77701;SDS011;66868;42.708;23.404;2023-02-02T16:40:13;2.97;;;2.77;;
77701;SDS011;66868;42.708;23.404;2023-02-02T16:42:40;3.30;;;3.10;;
77701;SDS011;66868;42.708;23.404;2023-02-02T16:45:06;2.90;;;2.30;;
77701;SDS011;66868;42.708;23.404;2023-02-02T16:47:52;2.20;;;2.10;;
77701;SDS011;66868;42.708;23.404;2023-02-02T16:50:24;3.83;;;3.63;;
77701;SDS011;66868;42.708;23.404;2023-02-02T16:52:59;5.13;;;2.77;;
77701;SDS011;66868;42.708;23.404;2023-02-02T16:55:28;3.07;;;2.83;;
77701;SDS011;66868;42.708;23.404;2023-02-02T16:57:55;2.67;;;2.47;;
77701;SDS011;66868;42.708;23.404;2023-02-02T17:00:23;2.43;;;2.33;;
77701;SDS011;66868;42.708;23.404;2023-02-02T17:02:51;2.60;;;2.40;;
77701;SDS011;66868;42.708;23.404;2023-02-02T17:05:25;2.97;;;2.70;;
77701;SDS011;66868;42.708;23.404;2023-02-02T17:08:00;3.00;;;2.77;;
77701;SDS011;66868;42.708;23.404;2023-02-02T17:10:32;2.80;;;2.40;;
77701;SDS011;66868;42.708;23.404;2023-02-02T17:13:00;2.27;;;2.17;;
77701;SDS011;66868;42.708;23.404;2023-02-02T17:15:34;2.27;;;2.17;;
77701;SDS011;66868;42.708;23.404;2023-02-02T17:18:01;2.60;;;2.50;;
77701;SDS011;66868;42.708;23.404;2023-02-02T17:20:28;2.60;;;2.50;;
77701;SDS011;66868;42.708;23.404;2023-02-02T17:22:55;2.60;;;2.50;;
77701;SDS011;66868;42.708;23.404;2023-02-02T17:25:44;2.67;;;2.50;;